Terminal Aerodrome Forecast
Issued by NWS

Home | Current Version | Previous Version | Text Only | Print | Product List | Glossary On
Versions: 1 2 3 4 5 6 7 8 9 10 11 12 13 14
000
FTUS42 KMLB 280500
TAFLEE
TAF
KLEE 280528Z 2806/2906 00000KT P6SM SCT006 OVC050
      TEMPO 2807/2809 3SM BR BKN006
     FM280900 00000KT 2SM BR OVC005
      TEMPO 2809/2812 1/2SM FG VV002
     FM281500 20004KT 3SM BR BKN008 BKN020
     FM281700 22005KT P6SM BKN040
     FM290000 19003KT P6SM BKN040=

USA.gov is the U.S. government's official web portal to all federal, state and local government web resources and services.